Time;durP1;ratioP1;P1;durP2;ratioP2;P2;SDS_P1;SDS_P2;PMS_P1;PMS_P2;Temp;Humidity;BMP_temperature;BMP_pressure;BME280_temperature;BME280_humidity;BME280_pressure;Samples;Min_cycle;Max_cycle;Signal;HPM_P1;HPM_P2
2022/01/25 00:33:30;;;;;;;0.00;0.00;;;2.00;99.90;;;;;;5004229;28;20031;-70
2022/01/25 00:35:57;;;;;;;0.00;0.00;;;2.00;99.90;;;;;;5004156;28;20266;-65
2022/01/25 00:38:23;;;;;;;0.00;0.00;;;2.00;99.90;;;;;;4986836;28;20030;-69
2022/01/25 00:40:49;;;;;;;0.00;0.00;;;1.90;99.90;;;;;;5003784;28;20044;-65
2022/01/25 00:43:15;;;;;;;0.00;0.00;;;1.90;99.90;;;;;;5004034;28;20045;-65
2022/01/25 00:45:42;;;;;;;0.00;0.00;;;1.90;99.90;;;;;;5003662;28;20018;-66
2022/01/25 00:48:17;;;;;;;0.00;0.00;;;1.90;99.90;;;;;;4986918;28;20041;-66
2022/01/25 00:50:43;;;;;;;0.00;0.00;;;1.90;99.90;;;;;;4986206;28;20240;-65
2022/01/25 00:55:53;;;;;;;0.00;0.00;;;1.90;99.90;;;;;;5003816;28;20030;-65
2022/01/25 00:58:19;;;;;;;0.00;0.00;;;2.00;99.90;;;;;;5003829;28;20030;-65
2022/01/25 01:00:45;;;;;;;0.00;0.00;;;2.00;99.90;;;;;;5003182;28;20072;-65
2022/01/25 01:03:14;;;;;;;0.00;0.00;;;2.00;99.90;;;;;;5003691;28;20029;-65
2022/01/25 01:05:40;;;;;;;;;;;1.90;99.90;;;;;;5003777;28;20345;-64
2022/01/25 01:08:06;;;;;;;0.00;0.00;;;1.90;99.90;;;;;;5004232;28;19902;-64
2022/01/25 01:10:31;;;;;;;0.00;0.00;;;2.00;99.90;;;;;;4985381;28;20022;-64
2022/01/25 01:29:51;;;;;;;0.00;0.00;;;2.00;99.90;;;;;;5003277;28;20101;-69
2022/01/25 01:47:42;;;;;;;;;;;2.00;99.90;;;;;;4984349;28;20034;-65
2022/01/25 01:50:13;;;;;;;0.00;0.00;;;2.00;99.90;;;;;;4986019;28;19905;-65
2022/01/25 01:52:38;;;;;;;0.00;0.00;;;1.90;99.90;;;;;;4985393;28;20022;-66
2022/01/25 01:55:06;;;;;;;0.00;0.00;;;1.90;99.90;;;;;;5002894;28;20375;-64
2022/01/25 01:57:31;;;;;;;0.00;0.00;;;1.90;99.90;;;;;;5002351;28;20026;-68
2022/01/25 01:59:57;;;;;;;0.00;0.00;;;1.90;99.90;;;;;;5002929;28;20089;-65
2022/01/25 02:02:23;;;;;;;0.00;0.00;;;1.90;99.90;;;;;;4985250;28;20018;-65
2022/01/25 02:04:49;;;;;;;0.00;0.00;;;1.90;99.90;;;;;;4985059;28;20041;-66
2022/01/25 02:07:15;;;;;;;0.00;0.00;;;1.90;99.90;;;;;;5002843;28;20022;-65
2022/01/25 02:09:40;;;;;;;0.00;0.00;;;1.90;99.90;;;;;;4984569;28;20057;-66
2022/01/25 02:12:07;;;;;;;0.00;0.00;;;1.90;99.90;;;;;;5001424;28;20124;-65
2022/01/25 02:14:35;;;;;;;0.00;0.00;;;1.90;99.90;;;;;;5000205;28;20041;-68
2022/01/25 02:17:11;;;;;;;0.00;0.00;;;1.90;99.90;;;;;;5002799;28;20049;-65
2022/01/25 02:22:31;;;;;;;0.00;0.00;;;1.90;99.90;;;;;;5002822;28;20376;-64
2022/01/25 02:24:58;;;;;;;0.00;0.00;;;1.90;99.90;;;;;;4985373;28;20022;-66
2022/01/25 02:27:24;;;;;;;0.00;0.00;;;1.90;99.90;;;;;;4985390;28;20054;-66
2022/01/25 02:29:49;;;;;;;0.00;0.00;;;1.90;99.90;;;;;;5001848;28;20309;-66
2022/01/25 02:32:16;;;;;;;0.00;0.00;;;1.90;99.90;;;;;;4984695;28;20033;-66
2022/01/25 02:34:42;;;;;;;0.00;0.00;;;1.90;99.90;;;;;;5001767;28;20129;-68
2022/01/25 02:37:11;;;;;;;0.00;0.00;;;1.90;99.90;;;;;;5002669;28;20022;-66
2022/01/25 02:39:38;;;;;;;0.00;0.00;;;1.90;99.90;;;;;;4984115;28;20097;-65
2022/01/25 02:42:05;;;;;;;0.00;0.00;;;1.90;99.90;;;;;;5002475;28;20026;-65
2022/01/25 02:44:34;;;;;;;0.00;0.00;;;1.90;99.90;;;;;;5001774;28;20026;-67
2022/01/25 02:49:29;;;;;;;0.00;0.00;;;1.90;99.90;;;;;;5006210;28;20054;-65
2022/01/25 02:51:55;;;;;;;0.00;0.00;;;1.90;99.90;;;;;;4970737;28;20309;-65
2022/01/25 02:54:21;;;;;;;0.00;0.00;;;1.90;99.90;;;;;;4997481;28;20049;-65
2022/01/25 02:56:47;;;;;;;0.00;0.00;;;1.90;99.90;;;;;;4997626;28;20165;-64
2022/01/25 02:59:15;;;;;;;0.00;0.00;;;1.90;99.90;;;;;;4970402;28;20112;-69
2022/01/25 03:01:42;;;;;;;0.00;0.00;;;1.90;99.90;;;;;;4997645;28;20018;-67
2022/01/25 03:04:09;;;;;;;0.00;0.00;;;1.90;99.90;;;;;;4970965;28;20026;-66
2022/01/25 03:06:36;;;;;;;0.00;0.00;;;1.90;99.90;;;;;;4998068;28;20062;-68
2022/01/25 03:09:05;;;;;;;0.00;0.00;;;1.90;99.90;;;;;;4997633;28;20030;-66
2022/01/25 03:11:30;;;;;;;0.00;0.00;;;1.90;99.90;;;;;;4982256;28;20092;-67
2022/01/25 03:13:59;;;;;;;0.00;0.00;;;1.90;99.90;;;;;;4995641;28;20385;-69
2022/01/25 03:16:35;;;;;;;0.00;0.00;;;1.90;99.90;;;;;;4980693;28;20435;-66
2022/01/25 03:19:26;;;;;;;0.00;0.00;;;1.90;99.90;;;;;;4997597;28;20759;-66
2022/01/25 03:21:50;;;;;;;0.00;0.00;;;1.90;99.90;;;;;;4996772;28;20045;-65
2022/01/25 03:24:15;;;;;;;0.00;0.00;;;1.90;99.90;;;;;;5004456;28;20030;-66
2022/01/25 03:26:41;;;;;;;0.00;0.00;;;1.90;99.90;;;;;;5004444;28;20050;-66
2022/01/25 03:29:07;;;;;;;0.00;0.00;;;1.90;99.90;;;;;;5005494;28;20022;-66
2022/01/25 03:31:33;;;;;;;0.00;0.00;;;1.90;99.90;;;;;;5005749;28;20197;-65
2022/01/25 03:33:59;;;;;;;0.00;0.00;;;1.90;99.90;;;;;;5005191;28;20015;-66
2022/01/25 03:36:25;;;;;;;0.00;0.00;;;1.90;99.90;;;;;;5005485;28;20056;-66
2022/01/25 03:38:51;;;;;;;0.00;0.00;;;1.90;99.90;;;;;;4987019;28;20049;-66
2022/01/25 03:41:18;;;;;;;0.00;0.00;;;1.90;99.90;;;;;;5005592;28;20030;-65
2022/01/25 03:43:51;;;;;;;0.00;0.00;;;1.90;99.90;;;;;;5004778;28;20018;-65
2022/01/25 03:46:34;;;;;;;0.00;0.00;;;1.90;99.90;;;;;;4987946;28;20307;-65
2022/01/25 03:51:44;;;;;;;0.00;0.00;;;1.80;99.90;;;;;;5004555;28;20069;-66
2022/01/25 03:54:10;;;;;;;0.00;0.00;;;1.80;99.90;;;;;;4987978;28;20022;-65
2022/01/25 03:56:36;;;;;;;0.00;0.00;;;1.90;99.90;;;;;;5004573;28;20310;-68
2022/01/25 03:59:05;;;;;;;0.00;0.00;;;1.90;99.90;;;;;;4986928;28;20030;-65
2022/01/25 04:01:31;;;;;;;0.00;0.00;;;1.80;99.90;;;;;;4987828;28;20029;-65
2022/01/25 04:04:00;;;;;;;0.00;0.00;;;1.80;99.90;;;;;;4986975;28;20050;-65
2022/01/25 04:06:30;;;;;;;0.00;0.00;;;1.80;99.90;;;;;;5004700;28;20019;-66
2022/01/25 04:08:57;;;;;;;0.00;0.00;;;1.80;99.90;;;;;;5004193;28;20034;-64
2022/01/25 04:11:22;;;;;;;0.00;0.00;;;1.80;99.90;;;;;;4987223;28;20018;-67
2022/01/25 04:13:51;;;;;;;0.00;0.00;;;1.80;99.90;;;;;;4986372;28;20057;-67
2022/01/25 04:16:21;;;;;;;;;;;1.80;99.90;;;;;;4987628;28;20029;-67
2022/01/25 04:19:06;;;;;;;0.00;0.00;;;1.80;99.90;;;;;;4986692;28;19905;-66
2022/01/25 04:26:47;;;;;;;0.00;0.00;;;1.80;99.90;;;;;;5003521;28;20081;-67
2022/01/25 04:29:13;;;;;;;0.00;0.00;;;1.80;99.90;;;;;;4987039;28;20027;-66
2022/01/25 04:31:39;;;;;;;0.00;0.00;;;1.80;99.90;;;;;;5003102;28;20309;-67
2022/01/25 04:34:37;;;;;;;0.00;0.00;;;1.80;99.90;;;;;;4986571;28;20185;-67
2022/01/25 04:50:28;;;;;;;0.00;0.00;;;1.90;99.90;;;;;;5003932;28;20245;-68
2022/01/25 04:53:06;;;;;;;0.00;0.00;;;1.80;99.90;;;;;;5003560;28;20031;-68
2022/01/25 04:55:58;;;;;;;0.00;0.00;;;1.90;99.90;;;;;;4986894;28;20054;-68
2022/01/25 04:58:28;;;;;;;0.00;0.00;;;1.90;99.90;;;;;;5003077;28;20034;-67
2022/01/25 05:00:54;;;;;;;0.00;0.00;;;1.80;99.90;;;;;;4985956;28;20097;-67
2022/01/25 05:03:26;;;;;;;0.00;0.00;;;1.90;99.90;;;;;;5003588;28;20332;-68
2022/01/25 05:05:59;;;;;;;0.00;0.00;;;1.90;99.90;;;;;;4986109;28;20140;-67
2022/01/25 05:11:05;;;;;;;;;;;1.90;99.90;;;;;;5003333;28;20138;-66
2022/01/25 05:13:52;;;;;;;0.00;0.00;;;1.90;99.90;;;;;;4986357;28;19944;-66
2022/01/25 05:16:31;;;;;;;0.00;0.00;;;1.90;99.90;;;;;;4986848;28;20034;-66
2022/01/25 05:24:26;;;;;;;0.00;0.00;;;1.90;99.90;;;;;;5002398;28;20425;-68
2022/01/25 05:26:52;;;;;;;0.00;0.00;;;1.90;99.90;;;;;;5000116;28;20054;-68
2022/01/25 05:29:17;;;;;;;0.00;0.00;;;1.90;99.90;;;;;;5000573;28;20096;-68
2022/01/25 05:31:43;;;;;;;0.00;0.00;;;2.00;99.90;;;;;;4982192;28;20258;-68
2022/01/25 05:34:09;;;;;;;0.00;0.00;;;2.00;99.90;;;;;;4981915;28;20018;-68
2022/01/25 05:36:36;;;;;;;0.00;0.00;;;2.00;99.90;;;;;;5002918;28;20168;-67
2022/01/25 05:39:10;;;;;;;0.00;0.00;;;2.00;99.90;;;;;;4985416;28;20391;-68
2022/01/25 05:41:36;;;;;;;0.00;0.00;;;2.00;99.90;;;;;;4986096;28;20022;-69
2022/01/25 05:46:35;;;;;;;0.00;0.00;;;2.00;99.90;;;;;;5003514;28;20041;-69
2022/01/25 05:49:00;;;;;;;0.00;0.00;;;2.00;99.90;;;;;;4985503;28;20031;-69
2022/01/25 05:51:26;;;;;;;0.00;0.00;;;2.00;99.90;;;;;;5003513;28;20301;-69
2022/01/25 05:53:52;;;;;;;0.00;0.00;;;2.00;99.90;;;;;;4985453;28;20280;-69
2022/01/25 05:56:17;;;;;;;0.00;0.00;;;2.00;99.90;;;;;;5003140;28;20050;-69
2022/01/25 05:58:43;;;;;;;0.00;0.00;;;2.00;99.90;;;;;;4985713;28;20026;-69
2022/01/25 06:01:09;;;;;;;0.00;0.00;;;2.00;99.90;;;;;;5002896;28;20082;-67
2022/01/25 06:03:35;;;;;;;0.00;0.00;;;2.00;99.90;;;;;;5003029;28;20186;-68
2022/01/25 06:06:01;;;;;;;0.00;0.00;;;2.00;99.90;;;;;;5002445;28;20093;-68
2022/01/25 06:08:27;;;;;;;0.00;0.00;;;2.00;99.90;;;;;;5003252;28;20046;-69
2022/01/25 06:10:52;;;;;;;0.00;0.00;;;2.00;99.90;;;;;;4985175;28;20022;-68
2022/01/25 06:13:18;;;;;;;0.00;0.00;;;2.00;99.90;;;;;;4985836;28;20297;-68
2022/01/25 06:15:44;;;;;;;0.00;0.00;;;2.00;99.90;;;;;;4985602;28;20289;-67
2022/01/25 06:18:09;;;;;;;0.00;0.00;;;2.00;99.90;;;;;;4985261;28;20033;-67
2022/01/25 06:20:35;;;;;;;0.00;0.00;;;2.00;99.90;;;;;;4985092;28;20069;-68
2022/01/25 06:23:01;;;;;;;0.00;0.00;;;2.10;99.90;;;;;;4987879;28;20042;-68
2022/01/25 06:25:27;;;;;;;0.00;0.00;;;2.10;99.90;;;;;;4989540;28;20022;-68
2022/01/25 06:27:53;;;;;;;0.00;0.00;;;2.10;99.90;;;;;;5005954;28;20053;-68
2022/01/25 06:30:20;;;;;;;0.00;0.00;;;2.10;99.90;;;;;;5006511;28;20030;-67
2022/01/25 06:32:46;;;;;;;0.00;0.00;;;2.10;99.90;;;;;;5006902;28;20022;-68
2022/01/25 06:35:15;;;;;;;0.00;0.00;;;2.10;99.90;;;;;;4989142;28;20324;-67
2022/01/25 06:37:41;;;;;;;;;;;2.10;99.90;;;;;;4987210;28;20102;-69
2022/01/25 06:40:08;;;;;;;0.00;0.00;;;2.10;99.90;;;;;;4986088;28;19905;-68
2022/01/25 06:42:35;;;;;;;0.00;0.00;;;2.20;99.90;;;;;;4985597;28;20029;-68
2022/01/25 06:45:08;;;;;;;0.00;0.00;;;2.20;99.90;;;;;;4984913;28;20018;-68
2022/01/25 06:47:33;;;;;;;0.00;0.00;;;2.20;99.90;;;;;;5002368;28;20018;-68
2022/01/25 06:49:59;;;;;;;0.00;0.00;;;2.20;99.90;;;;;;4984850;28;20030;-69
2022/01/25 06:52:25;;;;;;;0.00;0.00;;;2.30;99.90;;;;;;5002605;28;20113;-66
2022/01/25 06:54:51;;;;;;;0.00;0.00;;;2.30;99.90;;;;;;4984758;28;20085;-68
2022/01/25 06:57:18;;;;;;;0.00;0.00;;;2.30;99.90;;;;;;4985165;28;20023;-68
2022/01/25 06:59:44;;;;;;;0.00;0.00;;;2.30;99.90;;;;;;4985113;28;20030;-68
2022/01/25 07:02:10;;;;;;;0.00;0.00;;;2.30;99.90;;;;;;4984583;28;20344;-68
2022/01/25 07:04:36;;;;;;;0.00;0.00;;;2.30;99.90;;;;;;4984905;28;20069;-68
2022/01/25 07:07:01;;;;;;;0.00;0.00;;;2.40;99.90;;;;;;5001342;28;20026;-69
2022/01/25 07:09:28;;;;;;;0.00;0.00;;;2.40;99.90;;;;;;4984806;28;20053;-68
2022/01/25 07:11:54;;;;;;;0.00;0.00;;;2.40;99.90;;;;;;5002281;28;20091;-68
2022/01/25 07:14:19;;;;;;;0.00;0.00;;;2.50;99.90;;;;;;5002904;28;20023;-68
2022/01/25 07:16:46;;;;;;;0.00;0.00;;;2.50;99.90;;;;;;4985170;28;20041;-69
2022/01/25 07:19:12;;;;;;;0.00;0.00;;;2.50;99.90;;;;;;5002622;28;20317;-67
2022/01/25 07:21:38;;;;;;;0.00;0.00;;;2.60;99.90;;;;;;5002799;28;20018;-68
2022/01/25 07:24:05;;;;;;;0.00;0.00;;;2.60;99.90;;;;;;4987778;28;20029;-68
2022/01/25 07:26:30;;;;;;;0.00;0.00;;;2.60;99.90;;;;;;5005075;28;20096;-68
2022/01/25 07:28:56;;;;;;;0.00;0.00;;;2.60;99.90;;;;;;5005479;28;20352;-67
2022/01/25 07:31:22;;;;;;;0.00;0.00;;;2.60;99.90;;;;;;5006036;28;20098;-68
2022/01/25 07:33:48;;;;;;;0.00;0.00;;;2.60;99.90;;;;;;4987650;28;20053;-69
2022/01/25 07:36:14;;;;;;;0.00;0.00;;;2.60;99.90;;;;;;4988614;28;20018;-67
2022/01/25 07:38:39;;;;;;;0.00;0.00;;;2.60;99.90;;;;;;5005760;28;20305;-68
2022/01/25 07:41:05;;;;;;;0.00;0.00;;;2.70;99.90;;;;;;5005013;28;20271;-67
2022/01/25 07:43:31;;;;;;;0.00;0.00;;;2.70;99.90;;;;;;4988380;28;20026;-67
2022/01/25 07:45:58;;;;;;;0.00;0.00;;;2.70;99.90;;;;;;4987900;28;20018;-67
2022/01/25 07:48:24;;;;;;;0.00;0.00;;;2.70;99.90;;;;;;4988418;28;20026;-68
2022/01/25 07:50:50;;;;;;;0.00;0.00;;;2.70;99.90;;;;;;4987848;28;20476;-68
2022/01/25 07:53:16;;;;;;;0.00;0.00;;;2.80;99.90;;;;;;5005577;28;20018;-68
2022/01/25 07:55:41;;;;;;;0.00;0.00;;;2.80;99.90;;;;;;4988075;28;20023;-68
2022/01/25 07:58:07;;;;;;;0.00;0.00;;;2.80;99.90;;;;;;5004950;28;20022;-68
2022/01/25 08:00:33;;;;;;;0.00;0.00;;;2.80;99.90;;;;;;5005410;28;20049;-68
2022/01/25 08:03:00;;;;;;;0.00;0.00;;;2.80;99.90;;;;;;4987252;28;20038;-68
2022/01/25 08:05:26;;;;;;;0.00;0.00;;;2.80;99.90;;;;;;5005218;28;20065;-68
2022/01/25 08:07:55;;;;;;;0.00;0.00;;;2.80;99.90;;;;;;4987455;28;20271;-68
2022/01/25 08:10:22;;;;;;;0.00;0.00;;;2.80;99.90;;;;;;4987884;28;20029;-68
2022/01/25 08:12:48;;;;;;;0.00;0.00;;;2.80;99.90;;;;;;4987951;28;20018;-68
2022/01/25 08:15:16;;;;;;;0.00;0.00;;;2.80;99.90;;;;;;4987179;28;20029;-68
2022/01/25 08:17:42;;;;;;;0.00;0.00;;;2.80;99.90;;;;;;5005069;28;20335;-68
2022/01/25 08:20:08;;;;;;;0.00;0.00;;;2.80;99.90;;;;;;4986728;28;20036;-67
2022/01/25 08:22:34;;;;;;;0.00;0.00;;;2.80;99.90;;;;;;5002323;28;20019;-67
2022/01/25 08:25:01;;;;;;;0.00;0.00;;;2.90;99.90;;;;;;5003800;28;20316;-68
2022/01/25 08:27:27;;;;;;;0.00;0.00;;;2.90;99.90;;;;;;5003799;28;20340;-68
2022/01/25 08:29:53;;;;;;;0.00;0.00;;;2.90;99.90;;;;;;4986329;28;20113;-68
2022/01/25 08:32:20;;;;;;;0.00;0.00;;;2.90;99.90;;;;;;5004113;28;20045;-67
2022/01/25 08:34:46;;;;;;;0.00;0.00;;;2.90;99.90;;;;;;5003174;28;20085;-67
2022/01/25 08:37:13;;;;;;;0.00;0.00;;;2.90;99.90;;;;;;5003650;28;20045;-68
2022/01/25 08:39:39;;;;;;;0.00;0.00;;;2.90;99.90;;;;;;5004015;28;20077;-67
2022/01/25 08:42:05;;;;;;;0.00;0.00;;;2.90;99.90;;;;;;5003867;28;20026;-67
2022/01/25 08:44:31;;;;;;;0.00;0.00;;;3.00;99.90;;;;;;5004178;28;20102;-67
2022/01/25 08:46:57;;;;;;;0.00;0.00;;;3.00;99.90;;;;;;4983551;28;20026;-68
2022/01/25 08:49:23;;;;;;;0.00;0.00;;;3.00;99.90;;;;;;4986418;28;20030;-67
2022/01/25 08:51:49;;;;;;;0.00;0.00;;;3.10;99.90;;;;;;4986572;28;20304;-67
2022/01/25 08:54:17;;;;;;;0.00;0.00;;;3.20;99.90;;;;;;5003612;28;20332;-67
2022/01/25 08:56:43;;;;;;;;;;;3.20;99.90;;;;;;5004471;28;20018;-67
2022/01/25 08:59:10;;;;;;;0.00;0.00;;;3.10;99.90;;;;;;5002267;28;20287;-68
2022/01/25 09:01:36;;;;;;;0.00;0.00;;;3.10;99.90;;;;;;5002721;28;20038;-68
2022/01/25 09:04:02;;;;;;;0.00;0.00;;;3.10;99.90;;;;;;4985948;28;20019;-67
2022/01/25 09:06:27;;;;;;;0.00;0.00;;;3.10;99.90;;;;;;5003867;28;20201;-67
2022/01/25 09:09:01;;;;;;;0.00;0.00;;;3.10;99.90;;;;;;5003802;28;20023;-68
2022/01/25 09:11:27;;;;;;;0.00;0.00;;;3.10;99.90;;;;;;4986197;28;20061;-67
2022/01/25 09:13:53;;;;;;;0.00;0.00;;;3.10;99.90;;;;;;4986293;28;20209;-68
2022/01/25 09:16:19;;;;;;;0.00;0.00;;;3.10;99.90;;;;;;4986332;28;20084;-66
2022/01/25 09:18:45;;;;;;;0.00;0.00;;;3.10;99.90;;;;;;4986017;28;20026;-67
2022/01/25 09:21:11;;;;;;;0.00;0.00;;;3.10;99.90;;;;;;4985813;28;20182;-66
2022/01/25 09:23:37;;;;;;;0.00;0.00;;;3.10;99.90;;;;;;5003012;28;20022;-67
2022/01/25 09:26:03;;;;;;;0.00;0.00;;;3.10;99.90;;;;;;4985488;28;20050;-68
2022/01/25 09:28:30;;;;;;;0.00;0.00;;;3.10;99.90;;;;;;5003386;28;20025;-67
2022/01/25 09:30:56;;;;;;;0.00;0.00;;;3.10;99.90;;;;;;5002805;28;20018;-68
2022/01/25 09:33:23;;;;;;;0.00;0.00;;;3.10;99.90;;;;;;4985953;28;20089;-66
2022/01/25 09:35:50;;;;;;;0.00;0.00;;;3.20;99.90;;;;;;4986169;28;20186;-67
2022/01/25 09:38:16;;;;;;;0.00;0.00;;;3.10;99.90;;;;;;4985270;28;20076;-67
2022/01/25 09:40:43;;;;;;;0.00;0.00;;;3.20;99.90;;;;;;4985579;28;20028;-66
2022/01/25 09:43:09;;;;;;;0.00;0.00;;;3.20;99.90;;;;;;4985050;28;20022;-68
2022/01/25 09:45:36;;;;;;;0.00;0.00;;;3.20;99.90;;;;;;4985939;28;20018;-67
2022/01/25 09:48:04;;;;;;;0.00;0.00;;;3.20;99.90;;;;;;4985511;28;20026;-67
2022/01/25 09:50:30;;;;;;;0.00;0.00;;;3.20;99.90;;;;;;4985826;28;20092;-68
2022/01/25 09:52:56;;;;;;;0.00;0.00;;;3.10;99.90;;;;;;4985284;28;20023;-68
2022/01/25 09:55:26;;;;;;;0.00;0.00;;;3.20;99.90;;;;;;5002542;28;20014;-67
2022/01/25 09:57:52;;;;;;;0.00;0.00;;;3.10;99.90;;;;;;4984838;28;20050;-67
2022/01/25 10:00:24;;;;;;;0.00;0.00;;;3.10;99.90;;;;;;5000740;28;20026;-67
2022/01/25 10:03:01;;;;;;;0.00;0.00;;;3.20;99.90;;;;;;5002246;28;20257;-66
2022/01/25 10:05:33;;;;;;;0.00;0.00;;;3.20;99.90;;;;;;4984892;28;20073;-68
2022/01/25 10:08:16;;;;;;;0.00;0.00;;;3.10;99.90;;;;;;4984669;28;20026;-67
2022/01/25 10:10:53;;;;;;;0.00;0.00;;;3.10;99.90;;;;;;4985120;28;20026;-66
2022/01/25 10:13:22;;;;;;;0.00;0.00;;;3.10;99.90;;;;;;4984519;28;20023;-67
2022/01/25 10:15:48;;;;;;;;;;;3.20;99.90;;;;;;4985226;28;20025;-67
2022/01/25 10:18:14;;;;;;;0.00;0.00;;;3.20;99.90;;;;;;5001851;28;19906;-67
2022/01/25 10:20:46;;;;;;;0.00;0.00;;;3.20;99.90;;;;;;4985095;28;20138;-68
2022/01/25 10:23:19;;;;;;;0.00;0.00;;;3.20;99.90;;;;;;4984166;28;20026;-68
2022/01/25 10:25:48;;;;;;;0.00;0.00;;;3.30;99.90;;;;;;5002091;28;20023;-67
2022/01/25 10:28:15;;;;;;;;;;;3.30;99.90;;;;;;4984744;28;20026;-68
2022/01/25 10:31:05;;;;;;;0.00;0.00;;;3.30;99.90;;;;;;5002355;28;19909;-68
2022/01/25 10:33:37;;;;;;;0.00;0.00;;;3.40;99.90;;;;;;5002862;28;20026;-68
2022/01/25 10:36:19;;;;;;;0.00;0.00;;;3.30;99.90;;;;;;4984161;28;20022;-68
2022/01/25 10:38:48;;;;;;;0.00;0.00;;;3.30;99.90;;;;;;5001949;28;20030;-67
2022/01/25 10:41:18;;;;;;;0.00;0.00;;;3.30;99.90;;;;;;5001441;28;20014;-68
2022/01/25 10:43:46;;;;;;;0.00;0.00;;;3.30;99.90;;;;;;5001913;28;20086;-68
2022/01/25 10:46:17;;;;;;;0.00;0.00;;;3.30;99.90;;;;;;4984324;28;20018;-67
2022/01/25 10:48:54;;;;;;;0.00;0.00;;;3.30;99.90;;;;;;4984486;28;20076;-68
2022/01/25 10:51:24;;;;;;;0.00;0.00;;;3.30;99.90;;;;;;5001559;28;20080;-68
2022/01/25 10:54:00;;;;;;;0.00;0.00;;;3.30;99.90;;;;;;5002139;28;20019;-67
2022/01/25 10:56:26;;;;;;;0.00;0.00;;;3.30;99.90;;;;;;5002438;28;20053;-69
2022/01/25 10:58:59;;;;;;;0.00;0.00;;;3.30;99.90;;;;;;5001684;28;20026;-68
2022/01/25 11:01:33;;;;;;;0.00;0.00;;;3.30;99.90;;;;;;4984028;28;20094;-68
2022/01/25 11:04:04;;;;;;;0.00;0.00;;;3.30;99.90;;;;;;4982399;28;20026;-69
2022/01/25 11:06:30;;;;;;;0.00;0.00;;;3.30;99.90;;;;;;4981818;28;20019;-69
2022/01/25 11:09:00;;;;;;;0.00;0.00;;;3.40;99.90;;;;;;5000165;28;20049;-69
2022/01/25 11:11:40;;;;;;;0.00;0.00;;;3.30;99.90;;;;;;5000783;28;20049;-68
2022/01/25 11:16:53;;;;;;;0.00;0.00;;;3.30;99.90;;;;;;5001819;28;20388;-69
2022/01/25 11:19:21;;;;;;;0.00;0.00;;;3.40;99.90;;;;;;4983214;28;20030;-70
2022/01/25 11:21:48;;;;;;;0.00;0.00;;;3.40;99.90;;;;;;4984056;28;20076;-69
2022/01/25 11:24:17;;;;;;;0.00;0.00;;;3.30;99.90;;;;;;4999938;28;20093;-69
2022/01/25 11:26:46;;;;;;;0.00;0.00;;;3.30;99.90;;;;;;4980770;28;20043;-69
2022/01/25 11:29:12;;;;;;;0.00;0.00;;;3.30;99.90;;;;;;4996462;28;20027;-69
2022/01/25 11:31:42;;;;;;;0.00;0.00;;;3.40;99.90;;;;;;4980494;28;20026;-69
2022/01/25 11:34:11;;;;;;;0.00;0.00;;;3.30;99.90;;;;;;4996099;28;20023;-70
2022/01/25 11:36:56;;;;;;;0.00;0.00;;;3.30;99.90;;;;;;4982359;28;20049;-69
2022/01/25 11:39:25;;;;;;;0.00;0.00;;;3.30;99.90;;;;;;4982088;28;20314;-70
2022/01/25 11:42:17;;;;;;;0.00;0.00;;;3.30;99.90;;;;;;4982787;28;20057;-69
2022/01/25 11:44:50;;;;;;;0.00;0.00;;;3.30;99.90;;;;;;4997301;28;20018;-69
2022/01/25 11:47:19;;;;;;;0.00;0.00;;;3.30;99.90;;;;;;4981964;28;20023;-69
2022/01/25 11:50:00;;;;;;;0.00;0.00;;;3.30;99.90;;;;;;4996774;28;20026;-70
2022/01/25 11:52:28;;;;;;;0.00;0.00;;;3.30;99.90;;;;;;4996548;28;20023;-69
2022/01/25 11:55:20;;;;;;;0.00;0.00;;;3.30;99.90;;;;;;4980045;28;20050;-70
2022/01/25 11:57:48;;;;;;;0.00;0.00;;;3.30;99.90;;;;;;4979906;28;20072;-69
2022/01/25 12:00:15;;;;;;;0.00;0.00;;;3.30;99.90;;;;;;4979870;28;20023;-70
2022/01/25 12:02:46;;;;;;;0.00;0.00;;;3.30;99.90;;;;;;4996375;28;20078;-68
2022/01/25 12:05:24;;;;;;;0.00;0.00;;;3.30;99.90;;;;;;4995419;28;20025;-69
2022/01/25 12:08:05;;;;;;;0.00;0.00;;;3.30;99.90;;;;;;4996721;28;20019;-68
2022/01/25 12:10:42;;;;;;;0.00;0.00;;;3.40;99.90;;;;;;4983377;28;20210;-67
2022/01/25 12:13:29;;;;;;;0.00;0.00;;;3.30;99.90;;;;;;4995834;28;20069;-71
2022/01/25 12:16:30;;;;;;;0.00;0.00;;;3.30;99.90;;;;;;4995887;28;20019;-68
2022/01/25 12:18:59;;;;;;;0.00;0.00;;;3.30;99.90;;;;;;4940438;29;20160;-68
2022/01/25 12:21:47;;;;;;;0.00;0.00;;;3.30;99.90;;;;;;4984831;28;20191;-68
2022/01/25 12:24:19;;;;;;;0.00;0.00;;;3.30;99.90;;;;;;4980908;28;20115;-70
2022/01/25 12:27:06;;;;;;;0.00;0.00;;;3.30;99.90;;;;;;4970662;28;20273;-72
2022/01/25 12:29:41;;;;;;;0.00;0.00;;;3.30;99.90;;;;;;4962096;29;20139;-68
2022/01/25 12:32:17;;;;;;;0.00;0.00;;;3.30;99.90;;;;;;4976188;28;20251;-68
2022/01/25 12:35:07;;;;;;;0.00;0.00;;;3.30;99.90;;;;;;4960689;29;20063;-68
2022/01/25 12:37:42;;;;;;;0.00;0.00;;;3.30;99.90;;;;;;4960351;29;20027;-69
2022/01/25 12:40:29;;;;;;;0.00;0.00;;;3.40;99.90;;;;;;4960682;29;20069;-69
2022/01/25 12:42:56;;;;;;;0.00;0.00;;;3.30;99.90;;;;;;4961716;28;20033;-66
2022/01/25 12:45:25;;;;;;;0.00;0.00;;;3.40;99.90;;;;;;4959868;29;20049;-68
2022/01/25 12:48:08;;;;;;;0.00;0.00;;;3.40;99.90;;;;;;4976437;28;20027;-67
2022/01/25 12:50:40;;;;;;;0.00;0.00;;;3.40;99.90;;;;;;4976494;28;20042;-67
2022/01/25 12:53:08;;;;;;;0.00;0.00;;;3.40;99.90;;;;;;4960629;29;20066;-69
2022/01/25 12:55:41;;;;;;;0.00;0.00;;;3.40;99.90;;;;;;4961646;28;20046;-68
2022/01/25 12:58:07;;;;;;;0.00;0.00;;;3.30;99.90;;;;;;4960518;28;20199;-67
2022/01/25 13:00:43;;;;;;;0.00;0.00;;;3.30;99.90;;;;;;4960953;28;20050;-67
2022/01/25 13:03:23;;;;;;;0.00;0.00;;;3.30;99.90;;;;;;4975834;28;20078;-68
2022/01/25 13:06:00;;;;;;;0.00;0.00;;;3.40;99.90;;;;;;4960181;29;20019;-69
2022/01/25 13:08:32;;;;;;;0.00;0.00;;;3.40;99.90;;;;;;4960756;28;20094;-68
2022/01/25 13:11:18;;;;;;;0.00;0.00;;;3.30;99.90;;;;;;4975724;28;20178;-69
2022/01/25 13:13:57;;;;;;;0.00;0.00;;;3.30;99.90;;;;;;4961012;28;20322;-68
2022/01/25 13:16:40;;;;;;;0.00;0.00;;;3.40;99.90;;;;;;4975929;28;20200;-68
2022/01/25 13:19:06;;;;;;;0.00;0.00;;;3.40;99.90;;;;;;4960336;28;20078;-68
2022/01/25 13:21:45;;;;;;;0.00;0.00;;;3.30;99.90;;;;;;4976000;28;20027;-67
2022/01/25 13:24:16;;;;;;;0.00;0.00;;;3.30;99.90;;;;;;4959465;29;20030;-68
2022/01/25 13:27:04;;;;;;;0.00;0.00;;;3.40;99.90;;;;;;4984373;28;20077;-68
2022/01/25 13:32:22;;;;;;;0.00;0.00;;;3.40;99.90;;;;;;4979189;28;20056;-68
2022/01/25 13:35:18;;;;;;;0.00;0.00;;;3.40;99.90;;;;;;4995246;28;20023;-68
2022/01/25 13:37:46;;;;;;;0.00;0.00;;;3.40;99.90;;;;;;4980006;28;20023;-68
2022/01/25 13:40:14;;;;;;;;;;;3.30;99.90;;;;;;4980070;28;20046;-68
2022/01/25 13:42:57;;;;;;;0.00;0.00;;;3.30;99.90;;;;;;4979869;28;19902;-68
2022/01/25 13:48:11;;;;;;;0.00;0.00;;;3.30;99.90;;;;;;4979348;28;20322;-66
2022/01/25 13:50:39;;;;;;;0.00;0.00;;;3.30;99.90;;;;;;4979911;28;20018;-67
2022/01/25 13:53:06;;;;;;;0.00;0.00;;;3.30;99.90;;;;;;4979375;28;20026;-67
2022/01/25 13:55:33;;;;;;;0.00;0.00;;;3.30;99.90;;;;;;4994908;28;20209;-68
2022/01/25 13:57:59;;;;;;;0.00;0.00;;;3.40;99.90;;;;;;4994521;28;20054;-67
2022/01/25 14:00:25;;;;;;;0.00;0.00;;;3.30;99.90;;;;;;4994287;28;20235;-69
2022/01/25 14:02:57;;;;;;;0.00;0.00;;;3.30;99.90;;;;;;4977168;28;20018;-67
2022/01/25 14:05:24;;;;;;;0.00;0.00;;;3.40;99.90;;;;;;4976430;28;20019;-66
2022/01/25 14:07:51;;;;;;;0.00;0.00;;;3.40;99.90;;;;;;4979229;28;20023;-67
2022/01/25 14:10:23;;;;;;;0.00;0.00;;;3.40;99.90;;;;;;4994106;28;20089;-66
2022/01/25 14:23:57;;;;;;;0.00;0.00;;;3.40;99.90;;;;;;4979241;28;20297;-66
2022/01/25 14:26:30;;;;;;;0.00;0.00;;;3.40;99.90;;;;;;4984619;28;20343;-67
2022/01/25 14:29:07;;;;;;;0.00;0.00;;;3.40;99.90;;;;;;4981154;28;20268;-67
2022/01/25 14:31:42;;;;;;;0.00;0.00;;;3.40;99.90;;;;;;4998980;28;20014;-68
2022/01/25 14:34:11;;;;;;;0.00;0.00;;;3.40;99.90;;;;;;4997235;28;20042;-67
2022/01/25 14:36:39;;;;;;;0.00;0.00;;;3.30;99.90;;;;;;4998830;28;20022;-67
2022/01/25 14:39:06;;;;;;;0.00;0.00;;;3.40;99.90;;;;;;4980747;28;20158;-66
2022/01/25 14:41:34;;;;;;;0.00;0.00;;;3.40;99.90;;;;;;4981388;28;20314;-67
2022/01/25 14:44:06;;;;;;;0.00;0.00;;;3.40;99.90;;;;;;5000199;28;20089;-66
2022/01/25 14:46:48;;;;;;;0.00;0.00;;;3.40;99.90;;;;;;4985310;28;20122;-67
2022/01/25 14:49:23;;;;;;;0.00;0.00;;;3.50;99.90;;;;;;4984328;28;20022;-68
2022/01/25 14:51:51;;;;;;;0.00;0.00;;;3.40;99.90;;;;;;4985400;28;20259;-67
2022/01/25 14:54:22;;;;;;;0.00;0.00;;;3.40;99.90;;;;;;4984511;28;20267;-69
2022/01/25 14:56:52;;;;;;;0.00;0.00;;;3.40;99.90;;;;;;4985024;28;20022;-67
2022/01/25 14:59:27;;;;;;;0.00;0.00;;;3.40;99.90;;;;;;4983384;28;20105;-66
2022/01/25 15:02:08;;;;;;;0.00;0.00;;;3.50;99.90;;;;;;4984798;28;20022;-67
2022/01/25 15:04:39;;;;;;;0.00;0.00;;;3.40;99.90;;;;;;4984003;28;20018;-70
2022/01/25 15:07:14;;;;;;;0.00;0.00;;;3.40;99.90;;;;;;5001572;28;20018;-69
2022/01/25 15:09:49;;;;;;;0.00;0.00;;;3.40;99.90;;;;;;4983888;28;20022;-67
2022/01/25 15:12:16;;;;;;;0.00;0.00;;;3.40;99.90;;;;;;4983639;28;20015;-67
2022/01/25 15:14:52;;;;;;;0.00;0.00;;;3.40;99.90;;;;;;5002039;28;20049;-67
2022/01/25 15:17:18;;;;;;;0.00;0.00;;;3.40;99.90;;;;;;5000193;28;20105;-69